Ana Sayfa
METAR-TAF:

METAR-TAF

Havaalanları :

Fairfield Municipal Airport

Fairfield, Illinois, Amerika Birleşik Devletleri

Enlem: 38-22-43N, Boylam: 088-24-46W, yükseklik: 133 m

Güncel hava durumu gözlemi

Rapor saat 12:55 UTC de 28 dakika önce yapıldı.
Sakin rüzgar
Sıcaklık 19°C
Nem 94%
Basınç 1014 hPa
Görüş mesafesi: 11.3 km
600 ft yükseklikte parçalı bulutlu
12000 ft yükseklikte parçalı bulutlu
civarda gök gürültülü fırtına

METAR: KFWC 231255Z AUTO 00000KT 7SM VCTS SCT006 SCT120 19/18 A2995 RMK AO2 LTG DSNT SE T01900178

Saat: 08:23 (13:23 UTC)


TAF: eksik

4.000'den fazla havaalanı için hava durumu gözlemleri ve tahminleri (METAR ve TAF raporları).

Kullanılabilir istasyonlar harita üzerinde sarı ve kırmızı noktalarla gösterilir.

İstasyonun adını görmek için fareyi noktanın üzerinde gezdirin.

Sonrasında hava gözlem ve tahminlerini görmek için tıklayın.

Haritayı değiştirmek için: yaklaştırmak için siyah artı işaretli yeşil düğmeye ve uzaklaştırmak için de eksi işaretli düğmeye hızla tıklayın; bitişik haritalar için yeşil okları kullanın.


METAR-TAF: